Time;durP1;ratioP1;P1;durP2;ratioP2;P2;SDS_P1;SDS_P2;PMS_P1;PMS_P2;Temp;Humidity;BMP_temperature;BMP_pressure;BME280_temperature;BME280_humidity;BME280_pressure;Samples;Min_cycle;Max_cycle;Signal;HPM_P1;HPM_P2
2022/08/24 00:01:15;;;;;;;3.95;1.90;;;20.70;62.90;;;;;;5053434;28;20172;-92
2022/08/24 00:03:42;;;;;;;9.30;1.73;;;20.70;62.90;;;;;;5053030;28;20203;-91
2022/08/24 00:06:09;;;;;;;5.65;1.92;;;20.70;63.00;;;;;;5053295;28;20202;-91
2022/08/24 00:08:37;;;;;;;4.57;1.80;;;20.70;63.10;;;;;;5053447;28;20235;-91
2022/08/24 00:11:03;;;;;;;6.75;2.40;;;20.70;63.20;;;;;;5052257;28;20199;-91
2022/08/24 00:13:29;;;;;;;5.38;1.75;;;20.70;63.30;;;;;;5052640;28;20280;-89
2022/08/24 00:15:55;;;;;;;7.13;1.70;;;20.70;63.30;;;;;;5052976;28;20198;-91
2022/08/24 00:18:21;;;;;;;3.58;1.60;;;20.70;63.30;;;;;;5053144;28;20168;-88
2022/08/24 00:20:53;;;;;;;4.97;1.90;;;20.70;63.30;;;;;;5053521;28;20681;-91
2022/08/24 00:28:44;;;;;;;5.88;2.10;;;20.70;63.10;;;;;;5036321;28;20212;-88
2022/08/24 00:31:10;;;;;;;4.97;2.05;;;20.70;63.10;;;;;;5020126;28;20208;-90
2022/08/24 00:33:37;;;;;;;3.35;1.98;;;20.70;63.00;;;;;;5019644;28;20196;-89
2022/08/24 00:36:04;;;;;;;4.53;1.95;;;20.70;63.00;;;;;;5020467;28;20176;-90
2022/08/24 00:38:30;;;;;;;5.78;1.70;;;20.70;63.00;;;;;;5020228;28;20219;-89
2022/08/24 00:40:56;;;;;;;3.63;1.63;;;20.70;63.00;;;;;;5019623;28;20177;-90
2022/08/24 00:43:24;;;;;;;4.20;1.90;;;20.70;63.10;;;;;;5037614;28;20195;-90
2022/08/24 00:46:08;;;;;;;6.07;1.98;;;20.70;63.10;;;;;;5019652;28;20211;-90
2022/08/24 00:48:40;;;;;;;4.90;2.10;;;20.60;62.90;;;;;;5037275;28;20165;-90
2022/08/24 00:51:16;;;;;;;6.47;2.03;;;20.60;62.90;;;;;;5019768;28;20635;-89
2022/08/24 00:53:56;;;;;;;4.28;1.70;;;20.60;63.10;;;;;;5037072;28;20223;-89
2022/08/24 00:56:30;;;;;;;3.30;1.73;;;20.60;63.30;;;;;;5019764;28;20168;-89
2022/08/24 00:58:59;;;;;;;3.60;1.73;;;20.50;63.30;;;;;;5019553;28;20173;-89
2022/08/24 01:01:26;;;;;;;4.97;2.10;;;20.50;63.30;;;;;;5019639;28;20177;-89
2022/08/24 01:03:51;;;;;;;8.95;2.47;;;20.50;63.40;;;;;;5019506;28;20235;-89
2022/08/24 01:06:17;;;;;;;3.92;1.90;;;20.40;63.50;;;;;;5019547;28;20185;-89
2022/08/24 01:08:44;;;;;;;5.40;2.00;;;20.40;63.60;;;;;;5019200;28;20195;-90
2022/08/24 01:11:14;;;;;;;7.53;2.30;;;20.40;63.60;;;;;;5019032;28;20197;-90
2022/08/24 01:13:43;;;;;;;7.82;2.00;;;20.30;63.70;;;;;;5036533;28;20208;-89
2022/08/24 01:16:12;;;;;;;4.10;1.98;;;20.30;63.90;;;;;;5019064;28;20177;-89
2022/08/24 01:18:49;;;;;;;4.70;1.88;;;20.20;63.90;;;;;;5018894;28;20263;-89
2022/08/24 01:21:35;;;;;;;4.97;2.05;;;20.20;64.00;;;;;;5019068;28;20172;-90
2022/08/24 01:24:10;;;;;;;5.45;2.13;;;20.20;64.20;;;;;;5019303;28;20201;-89
2022/08/24 01:26:41;;;;;;;3.90;1.75;;;20.20;64.20;;;;;;5036368;28;20164;-90
2022/08/24 01:29:11;;;;;;;6.97;1.90;;;20.20;64.40;;;;;;5019714;28;20173;-89
2022/08/24 01:31:38;;;;;;;4.47;1.80;;;20.20;64.40;;;;;;5018665;28;20165;-89
2022/08/24 01:34:04;;;;;;;9.70;2.20;;;20.10;64.70;;;;;;5018526;28;20559;-89
2022/08/24 01:36:54;;;;;;;6.13;2.38;;;20.00;64.90;;;;;;5018071;28;20173;-89
2022/08/24 01:39:33;;;;;;;4.40;2.20;;;19.90;65.20;;;;;;5018459;28;20652;-89
2022/08/24 01:42:00;;;;;;;3.63;1.80;;;19.90;65.20;;;;;;5018993;28;20176;-89
2022/08/24 01:44:28;;;;;;;6.18;1.80;;;19.90;65.40;;;;;;5018159;28;20196;-90
2022/08/24 01:46:55;;;;;;;2.92;1.98;;;19.80;65.60;;;;;;5018753;28;20259;-89
2022/08/24 01:49:28;;;;;;;4.47;1.73;;;19.80;65.60;;;;;;5018015;28;20199;-89
2022/08/24 01:51:54;;;;;;;4.78;2.08;;;19.70;65.80;;;;;;5018624;28;20165;-90
2022/08/24 01:54:21;;;;;;;6.57;1.77;;;19.70;66.00;;;;;;5018120;28;20223;-89
2022/08/24 01:56:46;;;;;;;5.82;2.00;;;19.70;66.30;;;;;;5018975;28;20173;-89
2022/08/24 01:59:12;;;;;;;5.45;2.50;;;19.60;66.40;;;;;;5035618;28;20169;-90
2022/08/24 02:01:42;;;;;;;4.90;2.13;;;19.60;66.80;;;;;;5017886;28;20227;-90
2022/08/24 02:04:09;;;;;;;3.92;2.30;;;19.50;66.90;;;;;;5017929;28;20192;-89
2022/08/24 02:06:35;;;;;;;5.88;2.10;;;19.40;67.30;;;;;;5019065;28;20174;-88
2022/08/24 02:09:00;;;;;;;5.32;2.38;;;19.40;67.40;;;;;;5018063;28;20264;-89
2022/08/24 02:11:26;;;;;;;3.97;2.10;;;19.30;67.60;;;;;;5018253;28;20716;-89
2022/08/24 02:13:52;;;;;;;6.85;2.63;;;19.30;67.90;;;;;;5018297;28;20198;-90
2022/08/24 02:16:18;;;;;;;5.15;1.90;;;19.20;68.10;;;;;;5017751;28;20176;-89
2022/08/24 02:18:44;;;;;;;3.45;2.25;;;19.20;68.30;;;;;;5017631;28;20181;-89
2022/08/24 02:21:11;;;;;;;5.78;2.38;;;19.10;68.50;;;;;;5035739;28;20196;-89
2022/08/24 02:23:38;;;;;;;5.78;2.33;;;19.10;68.80;;;;;;5017300;28;20590;-89
2022/08/24 02:26:06;;;;;;;4.50;2.00;;;19.00;69.00;;;;;;5017888;28;20185;-90
2022/08/24 02:28:32;;;;;;;6.55;2.00;;;19.00;69.20;;;;;;5018073;28;20193;-89
2022/08/24 02:30:58;;;;;;;6.65;2.42;;;19.00;69.30;;;;;;5017464;28;20619;-89
2022/08/24 02:33:24;;;;;;;5.82;2.13;;;18.90;69.50;;;;;;5017736;28;20192;-89
2022/08/24 02:35:50;;;;;;;5.90;2.33;;;18.90;69.70;;;;;;5017659;28;20639;-89
2022/08/24 02:38:16;;;;;;;8.70;2.38;;;18.80;69.70;;;;;;5035262;28;20165;-89
2022/08/24 02:40:42;;;;;;;6.00;2.38;;;18.80;69.90;;;;;;5017171;28;20185;-89
2022/08/24 02:43:09;;;;;;;7.38;3.10;;;18.80;70.10;;;;;;5034889;28;20196;-89
2022/08/24 02:45:43;;;;;;;5.78;2.10;;;18.70;70.40;;;;;;5035038;28;20173;-89
2022/08/24 02:48:09;;;;;;;3.55;2.15;;;18.70;70.60;;;;;;5034060;28;20160;-90
2022/08/24 02:50:40;;;;;;;7.90;2.30;;;18.70;70.80;;;;;;5034729;28;20196;-89
2022/08/24 02:53:06;;;;;;;6.03;2.35;;;18.60;71.10;;;;;;5017063;28;20192;-90
2022/08/24 02:55:31;;;;;;;4.90;2.20;;;18.50;71.50;;;;;;5017130;28;20176;-89
2022/08/24 02:57:57;;;;;;;5.75;2.53;;;18.40;71.90;;;;;;5017212;28;20259;-89
2022/08/24 03:00:23;;;;;;;7.88;2.67;;;18.30;72.20;;;;;;5016996;28;20254;-90
2022/08/24 03:02:50;;;;;;;7.63;2.30;;;18.20;72.60;;;;;;5016852;28;20224;-89
2022/08/24 03:05:16;;;;;;;8.38;2.50;;;18.20;72.80;;;;;;5017037;28;20646;-89
2022/08/24 03:07:41;;;;;;;10.20;2.95;;;18.20;73.10;;;;;;5017362;28;20177;-89
2022/08/24 03:10:08;;;;;;;5.75;2.60;;;18.20;73.30;;;;;;5034738;28;20204;-89
2022/08/24 03:12:34;;;;;;;3.80;2.22;;;18.20;73.50;;;;;;5016749;28;20275;-89
2022/08/24 03:15:01;;;;;;;9.18;2.72;;;18.20;73.50;;;;;;5016670;28;20260;-89
2022/08/24 03:17:30;;;;;;;7.70;2.40;;;18.20;73.60;;;;;;5034339;28;20165;-89
2022/08/24 03:19:56;;;;;;;5.20;2.55;;;18.00;73.90;;;;;;5016941;28;20299;-89
2022/08/24 03:22:22;;;;;;;7.30;2.63;;;18.00;74.20;;;;;;5016689;28;20227;-89
2022/08/24 03:24:47;;;;;;;6.22;2.20;;;17.90;74.50;;;;;;5016621;28;20204;-89
2022/08/24 03:27:13;;;;;;;5.50;2.13;;;17.90;74.80;;;;;;5016507;28;20289;-89
2022/08/24 03:29:39;;;;;;;9.45;2.75;;;17.90;75.00;;;;;;5016436;28;20756;-89
2022/08/24 03:32:05;;;;;;;6.15;2.38;;;17.90;75.20;;;;;;5034324;28;20172;-89
2022/08/24 03:34:30;;;;;;;7.72;2.90;;;17.90;75.30;;;;;;5016443;28;20236;-89
2022/08/24 03:36:56;;;;;;;4.97;2.50;;;17.90;75.40;;;;;;5016409;28;20177;-90
2022/08/24 03:39:22;;;;;;;7.30;2.63;;;17.90;75.50;;;;;;5016355;28;20184;-91
2022/08/24 03:41:47;;;;;;;6.65;3.08;;;17.90;75.60;;;;;;5034298;28;20698;-89
2022/08/24 03:44:13;;;;;;;17.52;3.00;;;17.90;75.80;;;;;;5016764;28;20682;-89
2022/08/24 03:46:40;;;;;;;4.85;2.50;;;17.80;75.90;;;;;;5016342;28;20172;-90
2022/08/24 03:49:08;;;;;;;8.52;2.78;;;17.80;76.00;;;;;;5016259;28;20609;-89
2022/08/24 03:51:34;;;;;;;5.07;2.42;;;17.80;76.10;;;;;;5033686;28;20267;-90
2022/08/24 03:54:01;;;;;;;5.28;2.33;;;17.70;76.20;;;;;;5015807;28;20196;-89
2022/08/24 03:56:27;;;;;;;7.28;2.70;;;17.70;76.40;;;;;;5033534;28;20176;-89
2022/08/24 03:58:53;;;;;;;6.60;2.70;;;17.60;76.60;;;;;;5015702;28;20172;-89
2022/08/24 04:01:19;;;;;;;6.25;2.17;;;17.60;76.70;;;;;;5016006;28;20184;-89
2022/08/24 04:03:46;;;;;;;7.82;2.42;;;17.60;76.70;;;;;;5015927;28;20287;-89
2022/08/24 04:06:14;;;;;;;4.53;2.03;;;17.60;76.80;;;;;;5015950;28;20176;-90
2022/08/24 04:08:41;;;;;;;4.35;2.38;;;17.70;76.70;;;;;;5016064;28;20580;-89
2022/08/24 04:11:12;;;;;;;5.88;2.30;;;17.70;76.70;;;;;;5015797;28;20705;-89
2022/08/24 04:13:37;;;;;;;5.20;2.38;;;17.70;76.60;;;;;;5016133;28;20204;-89
2022/08/24 04:16:08;;;;;;;7.88;2.22;;;17.60;77.00;;;;;;5015944;28;20173;-90
2022/08/24 04:18:34;;;;;;;6.20;2.40;;;17.60;77.20;;;;;;5015902;28;20287;-90
2022/08/24 04:20:59;;;;;;;7.50;2.80;;;17.60;77.30;;;;;;5016190;28;20724;-89
2022/08/24 04:23:25;;;;;;;6.60;2.55;;;17.50;77.60;;;;;;5016136;28;20286;-90
2022/08/24 04:25:52;;;;;;;8.38;2.95;;;17.40;77.80;;;;;;5016589;28;20303;-89
2022/08/24 04:28:19;;;;;;;10.85;2.97;;;17.30;78.10;;;;;;5016477;28;20648;-90
2022/08/24 04:30:50;;;;;;;8.27;2.75;;;17.20;78.50;;;;;;5015522;28;20200;-89
2022/08/24 04:33:17;;;;;;;7.57;2.70;;;17.20;78.60;;;;;;5033226;28;20192;-89
2022/08/24 04:35:46;;;;;;;6.95;2.63;;;17.20;78.70;;;;;;5015928;28;20647;-89
2022/08/24 04:38:12;;;;;;;5.18;2.85;;;17.20;78.70;;;;;;5015717;28;20573;-89
2022/08/24 04:40:43;;;;;;;10.90;2.90;;;17.10;79.20;;;;;;5015580;28;20187;-89
2022/08/24 04:43:09;;;;;;;8.82;3.00;;;17.20;79.30;;;;;;5016043;28;20196;-89
2022/08/24 04:45:40;;;;;;;5.32;2.58;;;17.20;79.50;;;;;;5015569;28;20177;-90
2022/08/24 04:48:06;;;;;;;12.60;2.92;;;17.20;79.70;;;;;;5015627;28;20207;-89
2022/08/24 04:50:37;;;;;;;11.38;3.80;;;17.20;79.80;;;;;;5015364;28;20208;-89
2022/08/24 04:53:04;;;;;;;8.15;3.30;;;17.20;79.90;;;;;;5033194;28;20188;-89
2022/08/24 04:55:31;;;;;;;8.00;2.92;;;17.20;80.00;;;;;;5016321;28;20661;-89
2022/08/24 04:57:56;;;;;;;5.63;3.13;;;17.10;80.20;;;;;;5016177;28;20177;-89
2022/08/24 05:00:22;;;;;;;5.75;2.83;;;17.00;80.40;;;;;;5015521;28;20330;-89
2022/08/24 05:02:48;;;;;;;4.28;2.72;;;17.10;80.50;;;;;;5015548;28;20200;-89
2022/08/24 05:05:13;;;;;;;6.72;2.90;;;17.10;80.60;;;;;;5015424;28;20192;-89
2022/08/24 05:07:39;;;;;;;7.13;3.10;;;17.10;80.60;;;;;;5033164;28;20259;-90
2022/08/24 05:10:06;;;;;;;5.72;3.13;;;17.20;80.70;;;;;;5016561;28;20258;-89
2022/08/24 05:12:32;;;;;;;4.03;2.70;;;17.20;80.80;;;;;;5018839;28;20227;-89
2022/08/24 05:14:58;;;;;;;10.02;3.05;;;17.20;80.80;;;;;;5036898;28;20169;-89
2022/08/24 05:17:25;;;;;;;5.32;3.13;;;17.30;80.90;;;;;;5018741;28;20199;-89
2022/08/24 05:19:52;;;;;;;8.15;3.22;;;17.30;81.10;;;;;;5018869;28;20272;-89
2022/08/24 05:22:18;;;;;;;7.95;2.83;;;17.40;81.20;;;;;;5018849;28;20189;-89
2022/08/24 05:24:44;;;;;;;8.05;2.95;;;17.50;81.20;;;;;;5018598;28;20234;-89
2022/08/24 05:27:09;;;;;;;7.85;2.88;;;17.60;81.20;;;;;;5036549;28;20200;-89
2022/08/24 05:29:35;;;;;;;5.28;2.75;;;17.70;81.20;;;;;;5018728;28;20299;-89
2022/08/24 05:32:00;;;;;;;6.20;3.10;;;17.70;80.90;;;;;;5018554;28;20215;-89
2022/08/24 05:34:26;;;;;;;8.20;2.85;;;17.80;80.80;;;;;;5036105;28;20197;-89
2022/08/24 05:36:52;;;;;;;10.10;3.33;;;17.80;80.60;;;;;;5018431;28;20173;-89
2022/08/24 05:39:18;;;;;;;6.55;2.78;;;17.90;80.40;;;;;;5018303;28;20635;-89
2022/08/24 05:41:45;;;;;;;10.02;3.30;;;18.00;80.40;;;;;;5018474;28;20230;-90
2022/08/24 05:44:16;;;;;;;5.80;2.70;;;18.10;80.10;;;;;;5018403;28;20188;-89
2022/08/24 05:46:43;;;;;;;17.42;4.18;;;18.20;80.10;;;;;;5018572;28;20200;-89
2022/08/24 05:49:10;;;;;;;7.10;3.22;;;18.20;80.00;;;;;;5018552;28;20177;-89
2022/08/24 05:51:37;;;;;;;13.65;3.35;;;18.30;79.80;;;;;;5018252;28;20205;-89
2022/08/24 05:54:03;;;;;;;8.20;3.40;;;18.40;79.60;;;;;;5018052;28;20243;-89
2022/08/24 05:56:29;;;;;;;14.38;3.40;;;18.50;79.40;;;;;;5018333;28;20180;-89
2022/08/24 05:58:55;;;;;;;11.48;3.40;;;18.60;79.30;;;;;;5036331;28;20176;-91
2022/08/24 06:01:23;;;;;;;11.85;3.10;;;18.70;79.00;;;;;;5018270;28;20176;-90
2022/08/24 06:03:50;;;;;;;7.68;3.20;;;18.70;78.80;;;;;;5018265;28;20203;-89
2022/08/24 06:06:19;;;;;;;8.63;3.28;;;18.80;78.80;;;;;;5017833;28;20658;-89
2022/08/24 06:08:48;;;;;;;7.63;3.25;;;18.80;78.90;;;;;;5018360;28;20187;-89
2022/08/24 06:11:40;;;;;;;12.80;3.47;;;18.80;78.90;;;;;;5018447;28;20742;-89
2022/08/24 06:14:09;;;;;;;11.23;2.90;;;19.00;79.00;;;;;;5016389;28;20567;-89
2022/08/24 06:16:36;;;;;;;12.43;3.50;;;19.10;78.70;;;;;;5018645;28;20184;-90
2022/08/24 06:19:02;;;;;;;8.27;3.13;;;19.20;78.60;;;;;;5017836;28;20184;-89
2022/08/24 06:21:28;;;;;;;6.68;3.05;;;19.20;78.40;;;;;;5017544;28;20592;-90
2022/08/24 06:23:54;;;;;;;10.93;3.25;;;19.20;78.10;;;;;;5035671;28;20204;-90
2022/08/24 06:29:05;;;;;;;5.53;2.70;;;19.40;77.90;;;;;;5036059;28;20716;-90
2022/08/24 06:31:36;;;;;;;6.93;3.13;;;19.50;77.80;;;;;;5018329;28;20295;-89
2022/08/24 06:34:01;;;;;;;11.65;3.20;;;19.60;78.00;;;;;;5019458;28;20203;-89
2022/08/24 06:36:27;;;;;;;7.47;3.40;;;19.70;77.80;;;;;;5036214;28;20169;-86
2022/08/24 06:38:52;;;;;;;7.72;3.17;;;19.70;77.60;;;;;;5018767;28;20204;-86
2022/08/24 06:41:19;;;;;;;7.07;3.25;;;19.80;77.50;;;;;;5036688;28;20184;-87
2022/08/24 06:43:44;;;;;;;5.25;3.10;;;19.90;77.20;;;;;;5020453;28;20200;-87
2022/08/24 06:46:11;;;;;;;12.00;3.47;;;20.00;77.20;;;;;;5019239;28;20173;-87
2022/08/24 06:48:37;;;;;;;12.07;3.47;;;20.20;77.20;;;;;;5018822;28;20184;-86
2022/08/24 06:51:15;;;;;;;9.30;3.28;;;20.30;77.00;;;;;;5018243;28;20201;-87
2022/08/24 06:53:41;;;;;;;6.40;2.90;;;20.30;76.80;;;;;;5019118;28;20199;-87
2022/08/24 06:56:07;;;;;;;5.20;2.70;;;20.50;75.70;;;;;;5019832;28;20173;-87
2022/08/24 06:58:34;;;;;;;9.02;3.78;;;20.60;75.50;;;;;;5038330;28;20184;-87
2022/08/24 07:01:27;;;;;;;13.27;2.72;;;20.70;75.20;;;;;;5018949;28;20181;-87
2022/08/24 07:03:53;;;;;;;10.80;3.08;;;20.80;74.70;;;;;;5017998;28;20215;-87
2022/08/24 07:06:19;;;;;;;6.60;3.15;;;20.90;74.60;;;;;;5020107;28;20181;-87
2022/08/24 07:08:45;;;;;;;5.68;2.90;;;21.00;74.30;;;;;;5020520;28;20215;-87
2022/08/24 07:11:16;;;;;;;7.00;3.13;;;21.10;73.70;;;;;;5019239;28;20200;-87
2022/08/24 07:13:43;;;;;;;6.35;2.85;;;21.20;73.00;;;;;;5019197;28;20192;-87
2022/08/24 07:16:09;;;;;;;11.27;3.15;;;21.30;73.00;;;;;;5020029;28;20215;-87
2022/08/24 07:18:36;;;;;;;9.60;3.05;;;21.40;71.90;;;;;;5019965;28;20173;-87
2022/08/24 07:21:02;;;;;;;10.80;3.22;;;21.50;72.00;;;;;;5036842;28;20191;-87
2022/08/24 07:23:28;;;;;;;9.98;3.28;;;21.60;71.50;;;;;;5038745;28;20256;-88
2022/08/24 07:25:54;;;;;;;7.70;2.80;;;21.70;72.00;;;;;;5038615;28;20748;-87
2022/08/24 07:28:19;;;;;;;7.55;2.85;;;21.80;70.70;;;;;;5038554;28;20188;-87
2022/08/24 07:30:45;;;;;;;9.52;2.63;;;21.90;70.20;;;;;;5039035;28;20212;-88
2022/08/24 07:33:11;;;;;;;6.22;2.78;;;21.90;69.60;;;;;;5019976;28;20199;-87
2022/08/24 07:35:38;;;;;;;7.95;3.28;;;21.90;69.70;;;;;;5038820;28;20247;-87
2022/08/24 07:38:05;;;;;;;7.43;3.15;;;22.00;69.80;;;;;;5020302;28;20244;-87
2022/08/24 07:40:32;;;;;;;9.35;3.00;;;22.10;69.80;;;;;;5022346;28;20187;-87
2022/08/24 07:42:58;;;;;;;7.93;2.47;;;22.10;69.80;;;;;;5022437;28;20689;-87
2022/08/24 07:45:25;;;;;;;7.63;3.13;;;22.20;69.30;;;;;;5021252;28;20263;-87
2022/08/24 07:47:51;;;;;;;7.03;2.92;;;22.30;68.80;;;;;;5038856;28;20173;-87
2022/08/24 07:50:17;;;;;;;12.70;3.10;;;22.30;67.90;;;;;;5021676;28;20773;-87
2022/08/24 07:52:44;;;;;;;7.72;2.67;;;22.50;67.50;;;;;;5022405;28;20173;-87
2022/08/24 07:55:10;;;;;;;6.20;2.80;;;22.60;67.20;;;;;;5021361;28;20305;-87
2022/08/24 07:57:38;;;;;;;12.50;2.78;;;22.70;67.30;;;;;;5021557;28;20165;-88
2022/08/24 08:00:05;;;;;;;4.95;2.42;;;22.70;66.60;;;;;;5038413;28;20176;-87
2022/08/24 08:02:32;;;;;;;4.80;2.65;;;22.80;66.40;;;;;;5020991;28;20187;-86
2022/08/24 08:04:58;;;;;;;5.10;2.53;;;22.90;66.10;;;;;;5017164;28;20188;-87
2022/08/24 08:07:24;;;;;;;11.30;3.10;;;22.90;65.80;;;;;;5019694;28;20204;-86
2022/08/24 08:09:49;;;;;;;4.45;2.63;;;22.90;65.50;;;;;;5021407;28;20208;-87
2022/08/24 08:12:15;;;;;;;6.13;2.67;;;23.00;65.60;;;;;;5022242;28;20589;-86
2022/08/24 08:14:41;;;;;;;7.07;2.65;;;23.10;65.00;;;;;;5040736;28;20192;-87
2022/08/24 08:17:06;;;;;;;9.18;3.10;;;23.20;65.30;;;;;;5038078;28;20185;-87
2022/08/24 08:19:33;;;;;;;10.48;3.17;;;23.20;65.50;;;;;;5016718;28;20199;-87
2022/08/24 08:24:43;;;;;;;8.88;2.92;;;23.40;63.90;;;;;;5040656;28;20243;-88
2022/08/24 08:27:10;;;;;;;8.60;3.08;;;23.50;65.00;;;;;;5023531;28;20192;-87
2022/08/24 08:29:40;;;;;;;6.85;2.92;;;23.50;64.40;;;;;;5022480;28;20180;-87
2022/08/24 08:32:08;;;;;;;7.82;2.80;;;23.60;64.20;;;;;;5021651;28;20173;-88
2022/08/24 08:34:33;;;;;;;9.65;3.40;;;23.70;63.90;;;;;;5018232;28;20192;-88
2022/08/24 08:37:00;;;;;;;7.78;2.80;;;23.70;63.80;;;;;;5038008;28;20750;-88
2022/08/24 08:39:26;;;;;;;5.18;2.78;;;23.80;63.40;;;;;;5020360;28;20584;-88
2022/08/24 08:41:56;;;;;;;6.93;2.97;;;23.90;62.90;;;;;;5021833;28;20249;-88
2022/08/24 08:44:51;;;;;;;5.13;2.60;;;23.90;62.20;;;;;;5019568;28;20193;-88
2022/08/24 08:47:42;;;;;;;9.30;2.45;;;23.90;62.30;;;;;;5023505;28;20169;-87
2022/08/24 08:51:02;;;;;;;4.70;2.63;;;24.00;63.10;;;;;;5041163;28;20181;-88
2022/08/24 08:54:10;;;;;;;7.90;2.70;;;24.20;62.90;;;;;;4983166;28;20193;-87
2022/08/24 08:57:03;;;;;;;5.18;2.78;;;24.40;60.30;;;;;;5025304;28;20177;-87
2022/08/24 08:59:59;;;;;;;5.95;2.63;;;24.50;60.90;;;;;;5037315;28;20184;-87
2022/08/24 09:02:44;;;;;;;5.85;2.95;;;24.70;61.50;;;;;;5029898;28;20215;-88
2022/08/24 09:05:47;;;;;;;5.70;2.90;;;24.80;60.20;;;;;;5028602;28;20628;-88
2022/08/24 09:08:31;;;;;;;5.07;2.28;;;24.90;60.70;;;;;;5045560;28;20677;-88
2022/08/24 09:11:07;;;;;;;9.93;2.83;;;25.10;59.90;;;;;;5045027;28;20196;-88
2022/08/24 09:14:00;;;;;;;9.45;2.63;;;25.10;60.00;;;;;;5029030;28;20256;-88
2022/08/24 09:16:29;;;;;;;4.75;2.60;;;25.20;59.60;;;;;;5041551;28;20554;-88
2022/08/24 09:19:22;;;;;;;3.75;2.50;;;25.30;59.20;;;;;;5028450;28;20181;-89
2022/08/24 09:22:13;;;;;;;6.50;2.53;;;25.40;59.10;;;;;;5027265;28;20181;-87
2022/08/24 09:24:51;;;;;;;5.32;2.50;;;25.50;58.40;;;;;;5024712;28;20213;-87
2022/08/24 09:27:54;;;;;;;8.95;2.70;;;25.60;56.80;;;;;;5024568;28;20242;-87
2022/08/24 09:30:23;;;;;;;8.07;2.80;;;25.70;57.60;;;;;;5027216;28;20219;-88
2022/08/24 09:33:18;;;;;;;15.95;3.22;;;25.80;56.90;;;;;;5026411;28;20193;-87
2022/08/24 09:35:47;;;;;;;10.40;2.70;;;25.90;56.60;;;;;;5047483;28;20188;-88
2022/08/24 09:38:31;;;;;;;7.72;2.42;;;25.90;56.70;;;;;;5027095;28;20264;-88
2022/08/24 09:41:40;;;;;;;10.85;2.88;;;26.00;55.80;;;;;;5024176;28;20541;-89
2022/08/24 09:44:11;;;;;;;6.47;2.63;;;25.90;56.90;;;;;;5047805;28;20200;-88
2022/08/24 09:46:52;;;;;;;11.48;3.17;;;26.20;56.30;;;;;;5025440;28;20208;-88
2022/08/24 09:49:55;;;;;;;5.03;2.60;;;26.20;56.50;;;;;;5021673;28;20176;-86
2022/08/24 09:52:49;;;;;;;6.15;2.50;;;26.40;56.90;;;;;;5018167;28;20234;-85
2022/08/24 09:55:42;;;;;;;6.68;2.88;;;26.40;55.60;;;;;;5018185;28;20666;-84
2022/08/24 09:58:32;;;;;;;4.18;2.63;;;26.60;53.20;;;;;;5019846;28;20173;-84
2022/08/24 10:01:16;;;;;;;5.88;2.38;;;26.50;53.40;;;;;;5020391;28;20172;-85
2022/08/24 10:03:48;;;;;;;4.22;2.30;;;26.70;51.90;;;;;;5036550;28;20201;-85
2022/08/24 10:06:28;;;;;;;4.85;2.70;;;26.90;52.10;;;;;;5018142;28;20690;-85
2022/08/24 10:09:08;;;;;;;6.35;2.25;;;27.10;52.10;;;;;;5018123;28;20176;-85
2022/08/24 10:11:51;;;;;;;7.35;2.50;;;27.20;52.30;;;;;;5018030;28;20286;-85
2022/08/24 10:14:35;;;;;;;4.78;2.20;;;27.20;50.10;;;;;;5018421;28;20258;-85
2022/08/24 10:17:23;;;;;;;6.95;2.33;;;27.20;50.60;;;;;;5017810;28;20631;-85
2022/08/24 10:19:51;;;;;;;3.83;2.28;;;27.30;50.50;;;;;;5035278;28;20198;-86
2022/08/24 10:22:26;;;;;;;5.55;2.15;;;27.20;48.70;;;;;;5017323;28;20179;-86
2022/08/24 10:25:28;;;;;;;5.43;2.05;;;27.00;48.30;;;;;;5018178;28;20164;-85
2022/08/24 10:28:35;;;;;;;4.47;2.00;;;27.10;51.10;;;;;;5034881;28;20188;-86
2022/08/24 10:31:11;;;;;;;10.00;2.60;;;27.30;49.10;;;;;;5017150;28;20286;-86
2022/08/24 10:33:52;;;;;;;6.38;1.95;;;27.60;49.80;;;;;;5017367;28;20196;-86
2022/08/24 10:36:39;;;;;;;5.75;2.40;;;27.60;46.50;;;;;;5036894;28;20165;-86
2022/08/24 10:39:42;;;;;;;7.90;2.33;;;27.20;50.30;;;;;;5025383;28;20169;-85
2022/08/24 10:46:00;;;;;;;3.28;2.22;;;27.30;49.80;;;;;;5035506;28;20164;-86
2022/08/24 10:48:29;;;;;;;4.90;2.10;;;27.50;50.60;;;;;;5034627;28;20169;-86
2022/08/24 10:51:19;;;;;;;3.95;2.08;;;27.90;48.80;;;;;;5035218;28;20235;-86
2022/08/24 10:53:50;;;;;;;5.82;2.22;;;28.20;46.90;;;;;;5034450;28;20193;-86
2022/08/24 10:56:19;;;;;;;3.97;2.13;;;28.20;46.50;;;;;;5034911;28;20173;-86
2022/08/24 10:58:53;;;;;;;7.20;2.08;;;28.30;47.10;;;;;;5034244;28;20259;-86
2022/08/24 11:01:30;;;;;;;4.32;1.77;;;28.30;47.00;;;;;;5034201;28;20163;-86
2022/08/24 11:03:58;;;;;;;6.28;1.92;;;28.40;44.10;;;;;;5016450;28;20211;-87
2022/08/24 11:06:31;;;;;;;3.72;1.73;;;28.40;45.00;;;;;;5016490;28;20181;-86
2022/08/24 11:09:10;;;;;;;8.70;2.08;;;28.50;45.70;;;;;;5033479;28;20168;-86
2022/08/24 11:11:39;;;;;;;3.63;2.10;;;28.60;45.20;;;;;;5016302;28;20201;-86
2022/08/24 11:14:11;;;;;;;6.65;2.40;;;28.60;44.20;;;;;;5017194;28;20196;-86
2022/08/24 11:16:43;;;;;;;6.07;2.03;;;28.60;43.70;;;;;;5033993;28;20258;-86
2022/08/24 11:19:13;;;;;;;6.13;2.00;;;28.60;44.30;;;;;;5034561;28;20650;-86
2022/08/24 11:21:46;;;;;;;6.28;2.10;;;28.70;43.30;;;;;;5016129;28;20647;-86
2022/08/24 11:24:18;;;;;;;5.70;2.15;;;28.60;43.30;;;;;;5034308;28;20215;-85
2022/08/24 11:26:55;;;;;;;7.03;2.30;;;28.70;43.50;;;;;;5033587;28;20194;-85
2022/08/24 11:29:26;;;;;;;5.45;2.25;;;28.70;43.00;;;;;;5017223;28;20253;-86
2022/08/24 11:31:51;;;;;;;7.10;2.28;;;28.70;43.90;;;;;;5015902;28;20200;-85
2022/08/24 11:34:33;;;;;;;3.72;1.98;;;28.80;43.80;;;;;;5015787;28;20196;-86
2022/08/24 11:36:59;;;;;;;5.93;2.70;;;28.80;41.50;;;;;;5016859;28;20267;-85
2022/08/24 11:39:33;;;;;;;6.25;2.15;;;28.80;40.70;;;;;;5017268;28;20173;-86
2022/08/24 11:42:27;;;;;;;4.88;1.80;;;29.00;41.30;;;;;;5034828;28;20236;-86
2022/08/24 11:45:03;;;;;;;5.47;1.95;;;29.10;41.80;;;;;;5017998;28;20176;-86
2022/08/24 11:47:34;;;;;;;7.20;1.58;;;29.30;41.70;;;;;;5024213;28;20623;-86
2022/08/24 11:50:29;;;;;;;3.75;1.88;;;28.80;42.70;;;;;;5016009;28;20611;-86
2022/08/24 11:53:02;;;;;;;6.40;2.67;;;28.90;43.70;;;;;;5033921;28;20196;-86
2022/08/24 11:55:46;;;;;;;3.03;1.83;;;28.70;45.10;;;;;;5017192;28;20176;-88
2022/08/24 11:58:27;;;;;;;2.20;1.48;;;29.30;43.50;;;;;;5034024;28;20220;-86
2022/08/24 12:01:01;;;;;;;6.47;1.85;;;29.50;41.00;;;;;;5016042;28;20252;-87
2022/08/24 12:03:35;;;;;;;3.72;1.92;;;29.20;41.00;;;;;;5016245;28;20200;-86
2022/08/24 12:06:12;;;;;;;3.40;1.80;;;29.50;41.50;;;;;;5016765;28;20175;-86
2022/08/24 12:08:48;;;;;;;4.05;1.92;;;29.60;41.70;;;;;;5034762;28;20643;-86
2022/08/24 12:11:40;;;;;;;6.15;1.88;;;29.20;41.50;;;;;;5015732;28;20210;-87
2022/08/24 12:14:17;;;;;;;5.80;2.20;;;29.10;43.50;;;;;;5036695;28;20697;-88
2022/08/24 12:16:52;;;;;;;6.68;2.05;;;29.30;43.50;;;;;;5031268;28;20165;-88
2022/08/24 12:19:34;;;;;;;3.85;2.10;;;29.70;43.60;;;;;;5049308;28;20175;-88
2022/08/24 12:22:04;;;;;;;6.70;2.00;;;29.80;42.40;;;;;;5033704;28;20257;-88
2022/08/24 12:24:39;;;;;;;3.28;1.95;;;29.90;42.30;;;;;;5051211;28;20197;-88
2022/08/24 12:27:15;;;;;;;5.13;1.95;;;29.90;41.40;;;;;;5050083;28;20199;-87
2022/08/24 12:30:06;;;;;;;5.63;1.90;;;29.80;41.10;;;;;;5050309;28;20187;-87
2022/08/24 12:32:39;;;;;;;6.95;1.95;;;29.90;40.10;;;;;;5050686;28;20204;-88
2022/08/24 12:35:25;;;;;;;5.18;1.83;;;29.90;41.80;;;;;;5052028;28;20244;-87
2022/08/24 12:38:15;;;;;;;5.03;2.13;;;29.90;40.50;;;;;;5050339;28;20220;-88
2022/08/24 12:40:48;;;;;;;6.32;2.03;;;30.00;40.30;;;;;;5032712;28;20177;-88
2022/08/24 12:43:20;;;;;;;5.97;2.20;;;30.20;39.50;;;;;;5050568;28;20199;-87
2022/08/24 12:45:46;;;;;;;5.10;2.00;;;30.20;41.30;;;;;;5033697;28;20173;-87
2022/08/24 12:48:34;;;;;;;4.65;1.92;;;30.40;38.70;;;;;;5051270;28;20177;-87
2022/08/24 12:51:39;;;;;;;6.05;1.85;;;30.50;37.60;;;;;;5051007;28;20192;-88
2022/08/24 12:54:29;;;;;;;8.52;2.10;;;30.60;38.60;;;;;;5035075;28;20192;-87
2022/08/24 12:57:10;;;;;;;4.55;2.40;;;30.70;39.60;;;;;;5033688;28;20165;-88
2022/08/24 12:59:49;;;;;;;11.50;2.80;;;30.20;39.40;;;;;;5032963;28;20168;-87
2022/08/24 13:02:18;;;;;;;7.50;2.35;;;30.40;38.70;;;;;;5033462;28;20200;-87
2022/08/24 13:04:58;;;;;;;7.43;2.88;;;30.40;39.10;;;;;;5050923;28;20188;-88
2022/08/24 13:07:23;;;;;;;7.25;2.80;;;30.30;39.90;;;;;;5049147;28;20153;-87
2022/08/24 13:09:52;;;;;;;3.65;2.00;;;30.40;42.40;;;;;;5033553;28;20195;-87
2022/08/24 13:12:45;;;;;;;8.02;2.75;;;30.70;40.70;;;;;;5033700;28;20173;-88
2022/08/24 13:15:24;;;;;;;8.63;2.20;;;30.80;36.90;;;;;;5052344;28;20580;-87
2022/08/24 13:17:50;;;;;;;5.80;2.20;;;30.80;38.00;;;;;;5051031;28;20165;-87
2022/08/24 13:20:25;;;;;;;5.82;2.30;;;30.80;39.80;;;;;;5052425;28;20176;-87
2022/08/24 13:23:26;;;;;;;5.93;2.05;;;31.10;39.00;;;;;;5052508;28;20191;-88
2022/08/24 13:25:59;;;;;;;4.90;2.10;;;30.40;40.40;;;;;;5011432;28;20188;-88